Flight Track Log - Related Links

Times and Time Zones

All times are in EDT time to prevent confusion due to time zone crossing. See the SWA407 flight status page for this flight to view local times or setup timezone preferences in your user account.

Time Position Orientation Groundspeed Altitude Reporting Facility
EDT Latitude Longitude Course Direction KTS MPH feet Rate Location/Type
Tue 11:01:31 PM 37.6500 -122.3667 244° Southwest 153 176 2,100  Level Northern Cal TRACON
Tue 11:03:31 PM 37.6092 -122.4717 244° Southwest 295 339 10,000 3,812 Climbing Oakland Center
Tue 11:04:32 PM 37.5219 -122.5175 203° Southwest 354 407 13,600 3,344 Climbing Oakland Center
Tue 11:05:33 PM 37.4153 -122.5267 184° South 385 443 16,800 3,148 Climbing Oakland Center
Tue 11:06:34 PM 37.2947 -122.5394 185° South 426 490 20,000 3,098 Climbing Oakland Center
Tue 11:07:35 PM 37.1669 -122.5517 184° South 452 520 23,100 3,000 Climbing Oakland Center
Tue 11:08:36 PM 37.0336 -122.5639 184° South 473 544 26,100 2,780 Climbing Oakland Center
Tue 11:09:38 PM 36.8956 -122.5583 178° South 494 568 28,800 2,488 Climbing Oakland Center
Tue 11:10:39 PM 36.7572 -122.5192 167° South 507 583 31,200 2,164 Climbing Oakland Center
Tue 11:11:40 PM 36.6161 -122.4825 168° South 516 594 33,200 2,311 Climbing Oakland Center
Tue 11:12:41 PM 36.4767 -122.4467 168° South 514 592 35,900 2,164 Climbing Oakland Center
Tue 11:13:42 PM 36.3603 -122.3422 144° Southeast 531 611 37,600 1,918 Climbing Oakland Center
Tue 11:14:43 PM 36.2453 -122.1772 131° Southeast 528 608 39,800 1,672 Climbing Oakland Center
Tue 11:15:44 PM 36.1519 -122.0433 131° Southeast 521 600 41,000 585 Climbing Oakland Center
Tue 11:16:46 PM 36.0606 -121.9086 130° Southeast 514 592 41,000  Level Oakland Center
Tue 11:17:47 PM 35.9786 -121.7908 131° Southeast 513 590 41,000  Level Oakland Center
Tue 11:18:48 PM 35.8678 -121.6306 130° Southeast 514 592 41,000  Level Oakland Center
Tue 11:19:49 PM 35.7728 -121.4953 131° Southeast 519 597 41,000  Level Oakland Center
Tue 11:20:50 PM 35.6786 -121.3614 131° Southeast 520 598 41,000  Level Oakland Center
Tue 11:21:51 PM 35.5833 -121.2281 131° Southeast 520 598 41,000  Level Oakland Center
Tue 11:22:52 PM 35.4892 -121.0917 130° Southeast 524 603 41,000  Level Oakland Center
Tue 11:23:53 PM 35.4061 -120.9464 125° Southeast 525 604 41,000  Level Oakland Center
Tue 11:24:54 PM 35.3233 -120.8000 125° Southeast 526 605 41,000  Level Oakland Center
Tue 11:25:55 PM 35.2408 -120.6533 125° Southeast 530 610 41,000  Level Oakland Center
Tue 11:26:56 PM 35.1575 -120.5097 125° Southeast 527 606 41,000  Level Oakland Center
Tue 11:27:57 PM 35.0578 -120.3342 125° Southeast 531 611 41,000  Level Oakland Center
Tue 11:28:57 PM 34.9744 -120.1886 125° Southeast 529 609 41,000  Level Oakland Center
Tue 11:29:58 PM 34.8919 -120.0469 125° Southeast 519 597 41,000  Level Oakland Center
Tue 11:30:59 PM 34.8106 -119.9047 125° Southeast 517 595 41,000  Level Oakland Center
Tue 11:32:00 PM 34.7289 -119.7644 125° Southeast 512 589 41,000  Level Oakland Center
Tue 11:33:01 PM 34.6458 -119.6242 126° Southeast 512 589 41,000  Level Oakland Center
Tue 11:34:14 PM 34.5447 -119.4525 126° Southeast 512 589 41,000  Level Los Angeles Center
Tue 11:35:16 PM 34.4625 -119.3122 125° Southeast 511 588 41,000  Level Los Angeles Center
Tue 11:36:18 PM 34.3800 -119.1742 126° Southeast 510 587 41,000  Level Los Angeles Center
Tue 11:37:19 PM 34.2972 -119.0350 126° Southeast 509 586 41,000  Level Los Angeles Center
Tue 11:38:21 PM 34.1967 -118.8694 126° Southeast 510 587 41,000 -242 Level Los Angeles Center
Tue 11:39:23 PM 34.1139 -118.7325 126° Southeast 506 582 40,500 -1,366 Descending Los Angeles Center
Tue 11:40:24 PM 34.0292 -118.5925 126° Southeast 513 590 38,200 -2,049 Descending Los Angeles Center
Tue 11:41:26 PM 33.9425 -118.4483 126° Southeast 524 603 36,300 -2,613 Descending Los Angeles Center
Tue 11:42:28 PM 33.8386 -118.3131 133° Southeast 521 600 32,800 -3,048 Descending Los Angeles Center
Tue 11:43:30 PM 33.7372 -118.1878 134° Southeast 520 598 30,000 -2,341 Descending Los Angeles Center
Tue 11:44:31 PM 33.6444 -118.0631 132° Southeast 496 571 28,000 -2,049 Descending Los Angeles Center
Tue 11:45:33 PM 33.5519 -117.9461 133° Southeast 481 554 25,800 -2,274 Descending Los Angeles Center
Tue 11:46:35 PM 33.4608 -117.8317 134° Southeast 475 547 23,300 -2,390 Descending Los Angeles Center
Tue 11:47:36 PM 33.3725 -117.7200 133° Southeast 463 533 20,900 -2,585 Descending Los Angeles Center
Tue 11:48:38 PM 33.2689 -117.5886 133° Southeast 453 521 18,000 -2,637 Descending Los Angeles Center
Tue 11:49:07 PM 33.2333 -117.5500 138° Southeast 444 511 16,900 -2,386 Descending Southern California TRACON
Tue 11:50:01 PM 33.1500 -117.4667 140° Southeast 421 484 14,700 -2,043 Descending Southern California TRACON
Tue 11:50:41 PM 33.0825 -117.4247 152° Southeast 413 475 13,700 -2,000 Descending Los Angeles Center
Tue 11:51:43 PM 32.9961 -117.3553 146° Southeast 383 441 11,300 -2,207 Descending Los Angeles Center
Tue 11:52:08 PM 32.9500 -117.3167 145° Southeast 371 427 10,500 -1,129 Descending Southern California TRACON
Tue 11:53:08 PM 32.8667 -117.2500 146° Southeast 328 377 9,700 -918 Descending Southern California TRACON
Tue 11:53:46 PM 32.8369 -117.2308 152° Southeast 326 375 9,000 -970 Descending Los Angeles Center
Tue 11:54:47 PM 32.7975 -117.1403 117° Southeast 285 328 8,100 -732 Descending Los Angeles Center
Tue 11:55:08 PM 32.7833 -117.1167 126° Southeast 253 291 8,000 -1,259 Descending Southern California TRACON
Tue 11:56:08 PM 32.7833 -117.0333 90° East 228 262 6,400 -1,650 Descending Southern California TRACON
Tue 11:57:08 PM 32.7500 -116.9833 128° Southeast 227 261 4,700 -1,429 Descending Southern California TRACON
Tue 11:58:14 PM 32.7167 -117.0333 232° Southwest 165 190 3,400 -1,200 Descending Southern California TRACON
Tue 11:59:08 PM 32.7167 -117.0667 270° West 158 182 2,300 -1,100 Descending Southern California TRACON
Wed 12:00:14 AM 32.7167 -117.1333 270° West 139 160 1,200 -944 Descending Southern California TRACON
Wed 12:00:56 AM 32.7228 -117.1494 294° West 141 162 600 -519 Descending Los Angeles Center
Wed 12:01:58 AM 32.7369 -117.1986 289° West 138 159 300 -290 Descending Los Angeles Center
Wed 12:03:00 AM 32.7336 -117.1897 140° Southeast  Level Estimated

Login

Don't have an account? Register now (free) for customized features, flight alerts, and more!